createdAt,value
2019-02-17T00:01:51.956Z,14.40
2019-02-17T00:04:27.389Z,15.08
2019-02-17T00:06:56.329Z,15.18
2019-02-17T00:09:25.954Z,14.65
2019-02-17T00:12:01.859Z,14.30
2019-02-17T00:14:30.737Z,14.07
2019-02-17T00:16:59.587Z,14.23
2019-02-17T00:19:35.784Z,14.35
2019-02-17T00:22:04.733Z,14.85
2019-02-17T00:24:33.712Z,14.58
2019-02-17T00:27:09.638Z,13.25
2019-02-17T00:29:38.991Z,13.53
2019-02-17T00:32:08.080Z,14.65
2019-02-17T00:34:43.513Z,13.95
2019-02-17T00:37:19.244Z,12.88
2019-02-17T00:39:54.780Z,13.72
2019-02-17T00:42:23.783Z,13.48
2019-02-17T00:44:52.871Z,14.17
2019-02-17T00:47:29.686Z,13.48
2019-02-17T00:49:58.594Z,13.48
2019-02-17T00:52:27.452Z,16.17
2019-02-17T00:55:03.015Z,14.13
2019-02-17T00:57:38.754Z,15.00
2019-02-17T01:00:21.608Z,14.98
2019-02-17T01:02:50.551Z,14.13
2019-02-17T01:05:45.644Z,16.65
2019-02-17T01:08:21.061Z,14.75
2019-02-17T01:10:58.637Z,15.05
2019-02-17T01:13:27.559Z,15.88
2019-02-17T01:15:56.440Z,16.62
2019-02-17T01:18:31.653Z,16.90
2019-02-17T01:21:00.614Z,15.65
2019-02-17T01:23:30.370Z,15.13
2019-02-17T01:26:06.509Z,16.37
2019-02-17T01:28:35.441Z,14.35
2019-02-17T01:31:04.930Z,17.07
2019-02-17T01:33:39.971Z,15.32
2019-02-17T01:36:08.952Z,13.65
2019-02-17T01:38:51.894Z,17.32
2019-02-17T01:41:20.820Z,15.35
2019-02-17T01:43:49.770Z,15.77
2019-02-17T01:46:26.004Z,15.35
2019-02-17T01:48:54.870Z,14.98
2019-02-17T01:51:23.749Z,13.80
2019-02-17T01:53:59.504Z,14.23
2019-02-17T01:56:28.438Z,14.73
2019-02-17T01:58:57.421Z,15.35
2019-02-17T02:01:33.507Z,14.87
2019-02-17T02:04:02.400Z,13.88
2019-02-17T02:06:44.872Z,14.80
2019-02-17T02:09:20.508Z,14.53
2019-02-17T02:11:56.178Z,14.10
2019-02-17T02:14:25.126Z,15.40
2019-02-17T02:16:54.035Z,14.73
2019-02-17T02:19:29.374Z,13.83
2019-02-17T02:21:58.466Z,14.93
2019-02-17T02:24:27.303Z,14.20
2019-02-17T02:27:03.236Z,13.62
2019-02-17T02:29:40.850Z,15.33
2019-02-17T02:32:02.806Z,13.88
2019-02-17T02:34:37.904Z,14.97
2019-02-17T02:37:06.844Z,14.65
2019-02-17T02:39:48.911Z,13.00
2019-02-17T02:42:17.814Z,12.88
2019-02-17T02:44:48.636Z,13.30
2019-02-17T02:47:24.162Z,11.57
2019-02-17T02:49:53.176Z,14.10
2019-02-17T02:52:22.333Z,12.73
2019-02-17T02:54:57.284Z,14.73
2019-02-17T02:57:25.987Z,14.33
2019-02-17T02:59:54.752Z,14.00
2019-02-17T03:02:30.356Z,12.25
2019-02-17T03:04:59.108Z,14.50
2019-02-17T03:07:41.169Z,15.53
2019-02-17T03:10:17.093Z,14.03
2019-02-17T03:12:52.670Z,14.75
2019-02-17T03:15:21.382Z,14.10
2019-02-17T03:17:51.368Z,13.85
2019-02-17T03:20:26.370Z,12.78
2019-02-17T03:22:55.076Z,14.23
2019-02-17T03:25:23.836Z,13.38
2019-02-17T03:27:59.184Z,14.47
2019-02-17T03:30:30.178Z,13.93
2019-02-17T03:32:59.261Z,12.85
2019-02-17T03:35:35.093Z,14.63
2019-02-17T03:38:03.817Z,13.38
2019-02-17T03:40:45.304Z,14.75
2019-02-17T03:43:14.521Z,13.90
2019-02-17T03:45:43.324Z,13.98
2019-02-17T03:48:18.936Z,12.50
2019-02-17T03:50:47.661Z,13.85
2019-02-17T03:53:16.465Z,12.70
2019-02-17T03:55:51.577Z,13.60
2019-02-17T03:58:20.389Z,14.85
2019-02-17T04:00:49.148Z,13.77
2019-02-17T04:03:24.837Z,14.83
2019-02-17T04:05:53.724Z,14.30
2019-02-17T04:08:36.040Z,12.80
2019-02-17T04:11:11.750Z,12.85
2019-02-17T04:13:47.436Z,12.40
2019-02-17T04:16:22.904Z,13.98
2019-02-17T04:18:57.801Z,13.40
2019-02-17T04:21:26.547Z,12.95
2019-02-17T04:23:56.198Z,14.30
2019-02-17T04:26:31.391Z,13.18
2019-02-17T04:29:00.104Z,12.93
2019-02-17T04:31:28.840Z,13.20
2019-02-17T04:34:03.746Z,14.03
2019-02-17T04:36:32.485Z,13.98
2019-02-17T04:39:01.238Z,14.73
2019-02-17T04:41:42.411Z,13.88
2019-02-17T04:44:11.146Z,11.48
2019-02-17T04:46:39.873Z,13.58
2019-02-17T04:49:15.884Z,12.65
2019-02-17T04:51:44.605Z,12.65
2019-02-17T04:54:13.671Z,12.45
2019-02-17T04:56:48.887Z,13.50
2019-02-17T04:59:17.711Z,14.18
2019-02-17T05:01:46.620Z,13.95
2019-02-17T05:04:21.779Z,12.73
2019-02-17T05:06:50.535Z,11.97
2019-02-17T05:09:32.859Z,13.30
2019-02-17T05:12:08.568Z,13.53
2019-02-17T05:14:44.134Z,14.13
2019-02-17T05:17:12.882Z,12.57
2019-02-17T05:19:41.646Z,14.33
2019-02-17T05:22:17.567Z,14.18
2019-02-17T05:24:46.291Z,13.22
2019-02-17T05:27:15.053Z,14.20
2019-02-17T05:29:50.523Z,14.20
2019-02-17T05:32:19.267Z,13.20
2019-02-17T05:34:48.014Z,12.77
2019-02-17T05:37:23.900Z,12.30
2019-02-17T05:39:52.646Z,13.70
2019-02-17T05:42:35.235Z,13.72
2019-02-17T05:45:04.186Z,14.07
2019-02-17T05:47:32.947Z,12.93
2019-02-17T05:50:07.898Z,13.03
2019-02-17T05:52:36.608Z,13.48
2019-02-17T05:55:05.861Z,14.15
2019-02-17T05:57:41.401Z,13.03
2019-02-17T06:00:10.827Z,13.20
2019-02-17T06:02:39.560Z,13.83
2019-02-17T06:05:14.958Z,14.58
2019-02-17T06:07:43.636Z,13.83
2019-02-17T06:10:26.108Z,12.80
2019-02-17T06:13:01.745Z,14.28
2019-02-17T06:15:37.409Z,14.18
2019-02-17T06:18:06.114Z,15.65
2019-02-17T06:20:34.821Z,14.35
2019-02-17T06:23:09.626Z,14.35
2019-02-17T06:25:38.351Z,14.58
2019-02-17T06:28:07.079Z,13.72
2019-02-17T06:30:42.072Z,15.08
2019-02-17T06:33:10.796Z,14.75
2019-02-17T06:35:39.561Z,14.70
2019-02-17T06:38:15.226Z,16.07
2019-02-17T06:40:43.955Z,15.32
2019-02-17T06:43:26.275Z,17.70
2019-02-17T06:45:55.270Z,16.40
2019-02-17T06:48:23.990Z,16.27
2019-02-17T06:50:59.170Z,15.05
2019-02-17T06:53:27.853Z,17.47
2019-02-17T06:56:11.004Z,15.73
2019-02-17T06:58:39.751Z,17.17
2019-02-17T07:01:08.462Z,13.18
2019-02-17T07:03:44.497Z,13.00
2019-02-17T07:06:26.212Z,14.43
2019-02-17T07:09:01.413Z,14.83
2019-02-17T07:11:36.931Z,15.28
2019-02-17T07:14:18.963Z,14.45
2019-02-17T07:16:47.692Z,15.85
2019-02-17T07:19:16.723Z,14.60
2019-02-17T07:21:51.900Z,15.25
2019-02-17T07:24:20.632Z,17.17
2019-02-17T07:26:49.644Z,14.93
2019-02-17T07:29:25.363Z,15.03
2019-02-17T07:31:54.222Z,14.63
2019-02-17T07:34:22.947Z,14.55
2019-02-17T07:36:58.115Z,18.05
2019-02-17T07:39:26.925Z,17.45
2019-02-17T07:41:55.689Z,16.57
2019-02-17T07:44:40.402Z,19.05
2019-02-17T07:47:09.461Z,16.93
2019-02-17T07:49:38.703Z,19.43
2019-02-17T07:52:14.462Z,20.37
2019-02-17T07:54:43.276Z,18.20
2019-02-17T07:57:12.037Z,17.67
2019-02-17T07:59:47.832Z,18.17
2019-02-17T08:02:16.760Z,18.12
2019-02-17T08:05:13.287Z,17.35
2019-02-17T08:07:48.632Z,16.57
2019-02-17T08:10:25.817Z,15.23
2019-02-17T08:12:54.689Z,15.30
2019-02-17T08:15:23.744Z,15.23
2019-02-17T08:18:00.812Z,14.20
2019-02-17T08:20:29.783Z,13.50
2019-02-17T08:22:59.737Z,14.20
2019-02-17T08:25:37.101Z,13.48
2019-02-17T08:28:06.082Z,12.73
2019-02-17T08:30:34.966Z,14.93
2019-02-17T08:33:10.344Z,12.88
2019-02-17T08:35:39.591Z,12.53
2019-02-17T08:38:08.561Z,13.68
2019-02-17T08:40:44.355Z,14.58
2019-02-17T08:43:13.345Z,15.20
2019-02-17T08:45:55.528Z,13.55
2019-02-17T08:48:24.680Z,13.90
2019-02-17T08:50:53.942Z,13.45
2019-02-17T08:53:30.064Z,12.82
2019-02-17T08:55:59.291Z,13.98
2019-02-17T08:58:28.331Z,13.15
2019-02-17T09:01:03.754Z,13.38
2019-02-17T09:03:32.560Z,12.75
2019-02-17T09:06:14.893Z,11.60
2019-02-17T09:08:50.218Z,13.32
2019-02-17T09:11:25.862Z,14.43
2019-02-17T09:13:54.732Z,13.77
2019-02-17T09:16:23.618Z,12.85
2019-02-17T09:18:59.000Z,12.25
2019-02-17T09:21:27.747Z,12.05
2019-02-17T09:23:56.499Z,12.93
2019-02-17T09:26:32.378Z,12.20
2019-02-17T09:29:01.177Z,10.68
2019-02-17T09:31:30.024Z,10.43
2019-02-17T09:34:05.762Z,11.73
2019-02-17T09:36:34.506Z,10.10
2019-02-17T09:39:05.582Z,10.68
2019-02-17T09:41:41.345Z,8.78
2019-02-17T09:44:10.432Z,10.20
2019-02-17T09:46:52.450Z,8.50
2019-02-17T09:49:21.328Z,8.58
2019-02-17T09:51:50.171Z,9.00
2019-02-17T09:54:25.581Z,10.78
2019-02-17T09:56:55.560Z,9.00
2019-02-17T09:59:24.758Z,8.58
2019-02-17T10:02:00.295Z,9.13
2019-02-17T10:04:29.150Z,8.15
2019-02-17T10:07:11.016Z,7.45
2019-02-17T10:09:50.119Z,9.80
2019-02-17T10:12:25.254Z,9.90
2019-02-17T10:14:53.968Z,9.58
2019-02-17T10:17:22.769Z,8.98
2019-02-17T10:19:58.795Z,10.93
2019-02-17T10:22:27.532Z,8.60
2019-02-17T10:24:57.143Z,8.23
2019-02-17T10:27:32.785Z,8.18
2019-02-17T10:30:01.681Z,8.65
2019-02-17T10:32:37.284Z,9.38
2019-02-17T10:35:07.765Z,8.73
2019-02-17T10:37:36.561Z,8.23
2019-02-17T10:40:06.659Z,10.72
2019-02-17T10:42:41.909Z,9.00
2019-02-17T10:45:11.120Z,9.65
2019-02-17T10:47:53.083Z,9.13
2019-02-17T10:50:22.021Z,11.28
2019-02-17T10:52:50.783Z,10.00
2019-02-17T10:55:26.350Z,9.20
2019-02-17T10:57:55.093Z,9.58
2019-02-17T11:00:23.951Z,10.00
2019-02-17T11:03:01.139Z,9.70
2019-02-17T11:05:29.913Z,10.85
2019-02-17T11:08:11.882Z,10.10
2019-02-17T11:10:47.327Z,10.48
2019-02-17T11:13:22.503Z,11.00
2019-02-17T11:15:51.221Z,12.13
2019-02-17T11:18:19.977Z,10.03
2019-02-17T11:20:55.837Z,11.00
2019-02-17T11:23:24.557Z,12.33
2019-02-17T11:25:53.300Z,12.67
2019-02-17T11:28:28.742Z,12.75
2019-02-17T11:30:57.526Z,15.70
2019-02-17T11:33:26.366Z,11.65
2019-02-17T11:36:01.647Z,11.07
2019-02-17T11:38:30.427Z,10.25
2019-02-17T11:40:59.263Z,13.10
2019-02-17T11:43:34.204Z,12.13
2019-02-17T11:46:03.071Z,12.60
2019-02-17T11:48:46.430Z,12.40
2019-02-17T11:51:15.317Z,12.85
2019-02-17T11:53:44.132Z,12.45
2019-02-17T11:56:20.002Z,13.32
2019-02-17T11:58:48.781Z,11.30
2019-02-17T12:01:18.281Z,13.65
2019-02-17T12:03:53.862Z,11.57
2019-02-17T12:06:22.636Z,13.38
2019-02-17T12:09:04.060Z,12.18
2019-02-17T12:11:42.915Z,11.80
2019-02-17T12:14:18.237Z,11.70
2019-02-17T12:16:47.937Z,12.13
2019-02-17T12:19:18.090Z,12.13
2019-02-17T12:22:27.577Z,12.50
2019-02-17T12:25:02.763Z,11.83
2019-02-17T12:27:48.365Z,12.28
2019-02-17T12:30:22.269Z,10.30
2019-02-17T12:32:57.922Z,11.80
2019-02-17T12:35:26.759Z,11.55
2019-02-17T12:37:55.932Z,11.75
2019-02-17T12:40:31.181Z,11.75
2019-02-17T12:42:59.899Z,10.48
2019-02-17T12:45:28.973Z,10.70
2019-02-17T12:48:04.617Z,12.65
2019-02-17T12:50:40.508Z,11.30
2019-02-17T12:53:16.342Z,12.55
2019-02-17T12:55:45.119Z,12.85
2019-02-17T12:58:16.192Z,11.60
2019-02-17T13:00:51.840Z,11.60
2019-02-17T13:03:28.304Z,11.45
2019-02-17T13:05:51.364Z,12.00
2019-02-17T13:08:41.011Z,11.25
2019-02-17T13:11:16.783Z,11.33
2019-02-17T13:13:52.124Z,10.60
2019-02-17T13:16:20.993Z,12.28
2019-02-17T13:18:49.826Z,12.00
2019-02-17T13:21:25.587Z,11.65
2019-02-17T13:23:54.426Z,11.28
2019-02-17T13:26:23.135Z,12.00
2019-02-17T13:28:58.771Z,11.45
2019-02-17T13:31:27.545Z,13.70
2019-02-17T13:33:56.365Z,11.45
2019-02-17T13:36:31.674Z,12.17
2019-02-17T13:39:00.417Z,11.83
2019-02-17T13:41:29.181Z,12.35
2019-02-17T13:44:04.782Z,13.03
2019-02-17T13:46:33.526Z,12.23
2019-02-17T13:49:02.354Z,12.93
2019-02-17T13:51:44.238Z,12.47
2019-02-17T13:54:13.192Z,12.82
2019-02-17T13:56:41.978Z,13.25
2019-02-17T13:59:17.546Z,13.27
2019-02-17T14:01:46.704Z,12.33
2019-02-17T14:04:15.494Z,13.50
2019-02-17T14:06:50.881Z,13.65
2019-02-17T14:09:25.917Z,12.93
2019-02-17T14:12:08.068Z,11.95
2019-02-17T14:14:38.813Z,11.88
2019-02-17T14:17:07.705Z,12.90
2019-02-17T14:19:44.201Z,13.60
2019-02-17T14:22:13.265Z,13.73
2019-02-17T14:24:42.025Z,14.10
2019-02-17T14:27:18.476Z,13.00
2019-02-17T14:29:47.380Z,11.55
2019-02-17T14:32:16.260Z,14.25
2019-02-17T14:34:51.591Z,13.47
2019-02-17T14:37:20.427Z,13.32
2019-02-17T14:39:49.301Z,13.10
2019-02-17T14:42:25.022Z,12.03
2019-02-17T14:44:54.441Z,14.23
2019-02-17T14:47:23.172Z,13.48
2019-02-17T14:49:59.231Z,11.57
2019-02-17T14:52:34.734Z,13.48
2019-02-17T14:55:10.430Z,12.53
2019-02-17T14:57:47.014Z,11.78
2019-02-17T15:00:22.693Z,10.48
2019-02-17T15:02:51.449Z,12.63
2019-02-17T15:05:20.230Z,13.35
2019-02-17T15:07:55.710Z,13.48
2019-02-17T15:10:44.186Z,11.85
2019-02-17T15:13:24.494Z,13.03
2019-02-17T15:15:49.855Z,12.13
2019-02-17T15:18:18.824Z,11.33
2019-02-17T15:20:54.241Z,10.82
2019-02-17T15:23:23.074Z,12.10
2019-02-17T15:25:51.882Z,13.00
2019-02-17T15:28:27.676Z,11.15
2019-02-17T15:30:56.470Z,11.00
2019-02-17T15:33:25.378Z,10.13
2019-02-17T15:36:01.317Z,11.93
2019-02-17T15:38:30.639Z,11.03
2019-02-17T15:40:59.842Z,11.05
2019-02-17T15:43:36.887Z,9.70
2019-02-17T15:46:06.045Z,11.80
2019-02-17T15:48:36.867Z,10.55
2019-02-17T15:51:12.560Z,12.20
2019-02-17T15:53:48.741Z,10.75
2019-02-17T15:56:24.395Z,11.73
2019-02-17T15:58:53.406Z,11.43
2019-02-17T16:01:22.548Z,11.57
2019-02-17T16:03:57.725Z,10.58
2019-02-17T16:06:28.621Z,11.60
2019-02-17T16:08:57.517Z,12.33
2019-02-17T16:11:33.051Z,12.58
2019-02-17T16:14:08.493Z,10.67
2019-02-17T16:16:45.944Z,11.33
2019-02-17T16:19:15.980Z,12.28
2019-02-17T16:21:45.136Z,10.78
2019-02-17T16:24:20.720Z,11.28
2019-02-17T16:26:49.470Z,11.70
2019-02-17T16:29:18.274Z,10.60
2019-02-17T16:31:53.617Z,14.18
2019-02-17T16:34:24.085Z,11.33
2019-02-17T16:36:52.901Z,11.05
2019-02-17T16:39:27.902Z,10.35
2019-02-17T16:41:56.965Z,12.53
2019-02-17T16:44:25.763Z,13.08
2019-02-17T16:47:01.537Z,12.28
2019-02-17T16:49:30.430Z,12.20
2019-02-17T16:51:59.415Z,13.72
2019-02-17T16:54:41.776Z,12.13
2019-02-17T16:57:10.639Z,13.10
2019-02-17T16:59:39.446Z,14.87
2019-02-17T17:02:14.819Z,15.65
2019-02-17T17:04:48.489Z,12.23
2019-02-17T17:07:14.404Z,11.65
2019-02-17T17:09:49.981Z,12.30
2019-02-17T17:12:25.543Z,12.82
2019-02-17T17:15:07.700Z,13.13
2019-02-17T17:17:36.444Z,14.07
2019-02-17T17:20:05.575Z,13.13
2019-02-17T17:22:41.163Z,12.10
2019-02-17T17:25:10.804Z,12.60
2019-02-17T17:27:41.309Z,12.65
2019-02-17T17:30:18.521Z,12.85
2019-02-17T17:32:48.026Z,12.90
2019-02-17T17:35:16.830Z,14.53
2019-02-17T17:37:52.900Z,12.63
2019-02-17T17:40:23.459Z,12.43
2019-02-17T17:42:52.618Z,13.50
2019-02-17T17:45:31.284Z,13.13
2019-02-17T17:48:00.337Z,14.60
2019-02-17T17:50:29.058Z,14.50
2019-02-17T17:53:04.543Z,13.78
2019-02-17T17:55:40.294Z,18.73
2019-02-17T17:58:16.719Z,15.35
2019-02-17T18:00:45.913Z,14.80
2019-02-17T18:03:14.746Z,15.68
2019-02-17T18:05:50.815Z,18.07
2019-02-17T18:08:19.594Z,16.30
2019-02-17T18:11:01.631Z,19.40
2019-02-17T18:13:37.974Z,16.95
2019-02-17T18:16:14.145Z,18.70
2019-02-17T18:18:43.729Z,18.77
2019-02-17T18:21:13.882Z,21.50
2019-02-17T18:23:49.409Z,19.23
2019-02-17T18:26:18.165Z,19.30
2019-02-17T18:28:46.847Z,19.57
2019-02-17T18:31:22.448Z,15.47
2019-02-17T18:33:51.179Z,18.42
2019-02-17T18:36:19.931Z,19.02
2019-02-17T18:38:54.848Z,16.97
2019-02-17T18:41:23.735Z,16.93
2019-02-17T18:43:52.509Z,16.15
2019-02-17T18:46:28.025Z,16.10
2019-02-17T18:49:03.547Z,16.32
2019-02-17T18:51:38.865Z,20.23
2019-02-17T18:54:08.150Z,18.12
2019-02-17T18:56:49.605Z,17.87
2019-02-17T18:59:18.337Z,19.50
2019-02-17T19:01:47.209Z,20.32
2019-02-17T19:04:22.317Z,19.77
2019-02-17T19:06:51.521Z,22.50
2019-02-17T19:09:20.282Z,22.27
2019-02-17T19:11:55.497Z,21.82
2019-02-17T19:14:31.861Z,20.02
2019-02-17T19:17:06.914Z,20.35
2019-02-17T19:19:35.659Z,19.42
2019-02-17T19:22:04.753Z,21.05
2019-02-17T19:24:40.702Z,18.57
2019-02-17T19:27:09.589Z,20.20
2019-02-17T19:29:38.440Z,18.70
2019-02-17T19:32:13.470Z,16.70
2019-02-17T19:34:42.355Z,19.40
2019-02-17T19:37:11.171Z,19.40
2019-02-17T19:39:47.713Z,20.02
2019-02-17T19:42:16.730Z,19.10
2019-02-17T19:44:45.604Z,20.60
2019-02-17T19:47:21.048Z,19.10
2019-02-17T19:49:51.578Z,18.75
2019-02-17T19:52:20.379Z,19.02
2019-02-17T19:54:56.343Z,19.85
2019-02-17T19:57:34.903Z,20.92
2019-02-17T20:00:10.863Z,18.95
2019-02-17T20:02:57.313Z,20.25
2019-02-17T20:05:35.512Z,19.77
2019-02-17T20:08:04.976Z,20.12
2019-02-17T20:10:34.004Z,20.40
2019-02-17T20:13:11.262Z,19.70
2019-02-17T20:15:46.218Z,22.25
2019-02-17T20:18:21.433Z,19.35
2019-02-17T20:20:50.459Z,18.95
2019-02-17T20:23:19.370Z,21.12
2019-02-17T20:25:54.920Z,19.32
2019-02-17T20:28:35.660Z,21.70
2019-02-17T20:30:55.404Z,19.98
2019-02-17T20:33:30.889Z,21.50
2019-02-17T20:36:02.741Z,22.20
2019-02-17T20:38:30.160Z,21.15
2019-02-17T20:41:05.416Z,20.85
2019-02-17T20:43:34.199Z,23.77
2019-02-17T20:46:02.970Z,22.42
2019-02-17T20:48:37.888Z,19.12
2019-02-17T20:51:06.649Z,20.00
2019-02-17T20:53:35.419Z,21.85
2019-02-17T20:56:11.242Z,22.73
2019-02-17T20:58:47.046Z,21.27
2019-02-17T21:01:22.932Z,20.65
2019-02-17T21:03:52.012Z,20.15
2019-02-17T21:06:20.973Z,20.40
2019-02-17T21:08:56.108Z,20.75
2019-02-17T21:11:24.998Z,21.27
2019-02-17T21:14:06.090Z,22.00
2019-02-17T21:16:41.737Z,20.57
2019-02-17T21:19:17.212Z,21.80
2019-02-17T21:21:45.925Z,21.87
2019-02-17T21:24:14.770Z,21.70
2019-02-17T21:26:50.660Z,21.95
2019-02-17T21:29:19.452Z,22.75
2019-02-17T21:31:49.694Z,22.15
2019-02-17T21:34:24.828Z,21.90
2019-02-17T21:36:53.646Z,20.70
2019-02-17T21:39:22.587Z,22.13
2019-02-17T21:41:58.200Z,23.15
2019-02-17T21:44:26.931Z,21.50
2019-02-17T21:46:55.699Z,21.42
2019-02-17T21:49:31.376Z,21.65
2019-02-17T21:52:00.160Z,21.93
2019-02-17T21:54:28.920Z,22.25
2019-02-17T21:57:04.531Z,24.50
2019-02-17T21:59:40.157Z,23.90
2019-02-17T22:02:15.828Z,20.92
2019-02-17T22:04:44.603Z,22.55
2019-02-17T22:07:13.404Z,23.60
2019-02-17T22:09:48.928Z,22.77
2019-02-17T22:12:17.683Z,23.25
2019-02-17T22:15:00.206Z,21.85
2019-02-17T22:17:35.908Z,22.27
2019-02-17T22:20:12.157Z,22.77
2019-02-17T22:22:40.884Z,20.37
2019-02-17T22:25:09.805Z,21.30
2019-02-17T22:27:44.833Z,21.17
2019-02-17T22:30:13.764Z,21.97
2019-02-17T22:32:42.463Z,22.90
2019-02-17T22:35:18.226Z,23.18
2019-02-17T22:37:47.204Z,22.77
2019-02-17T22:40:16.057Z,23.67
2019-02-17T22:42:52.763Z,23.55
2019-02-17T22:45:21.513Z,23.05
2019-02-17T22:47:50.261Z,23.17
2019-02-17T22:50:26.113Z,23.70
2019-02-17T22:52:54.868Z,24.72
2019-02-17T22:55:23.627Z,22.82
2019-02-17T22:57:59.365Z,23.15
2019-02-17T23:00:47.646Z,22.67
2019-02-17T23:03:23.566Z,22.37
2019-02-17T23:05:52.381Z,20.83
2019-02-17T23:08:21.090Z,22.90
2019-02-17T23:10:56.727Z,22.00
2019-02-17T23:13:31.747Z,21.40
2019-02-17T23:16:14.365Z,22.30
2019-02-17T23:18:44.629Z,21.37
2019-02-17T23:21:13.583Z,20.60
2019-02-17T23:23:49.350Z,21.57
2019-02-17T23:26:18.082Z,21.53
2019-02-17T23:28:46.795Z,23.42
2019-02-17T23:31:23.492Z,22.25
2019-02-17T23:33:52.273Z,24.00
2019-02-17T23:36:21.027Z,21.50
2019-02-17T23:38:57.548Z,22.35
2019-02-17T23:41:27.385Z,22.40
2019-02-17T23:43:57.112Z,22.15
2019-02-17T23:46:32.461Z,21.87
2019-02-17T23:49:01.801Z,21.85
2019-02-17T23:51:31.432Z,23.80
2019-02-17T23:54:08.094Z,20.77
2019-02-17T23:56:38.122Z,21.90
2019-02-17T23:59:08.640Z,19.70
